sensor_id;sensor_type;location;lat;lon;timestamp;pressure;altitude;pressure_sealevel;temperature;humidity
54512;BME280;40419;47.438;19.026;2023-04-04T00:00:37;100072.03;;;2.05;51.23
54512;BME280;40419;47.438;19.026;2023-04-04T00:03:05;100072.19;;;2.13;49.22
54512;BME280;40419;47.438;19.026;2023-04-04T00:05:35;100070.34;;;2.14;49.68
54512;BME280;40419;47.438;19.026;2023-04-04T00:08:01;100077.38;;;2.15;49.52
54512;BME280;40419;47.438;19.026;2023-04-04T00:10:32;100076.84;;;2.11;50.44
54512;BME280;40419;47.438;19.026;2023-04-04T00:12:57;100081.34;;;2.01;50.01
54512;BME280;40419;47.438;19.026;2023-04-04T00:15:23;100086.97;;;1.98;52.43
54512;BME280;40419;47.438;19.026;2023-04-04T00:17:54;100083.16;;;2.01;52.00
54512;BME280;40419;47.438;19.026;2023-04-04T00:20:21;100088.34;;;2.02;52.64
54512;BME280;40419;47.438;19.026;2023-04-04T00:22:55;100091.03;;;1.92;53.43
54512;BME280;40419;47.438;19.026;2023-04-04T00:25:24;100090.34;;;1.81;53.67
54512;BME280;40419;47.438;19.026;2023-04-04T00:27:50;100097.66;;;1.88;52.35
54512;BME280;40419;47.438;19.026;2023-04-04T00:30:15;100100.47;;;1.77;53.71
54512;BME280;40419;47.438;19.026;2023-04-04T00:32:45;100092.16;;;1.90;52.26
54512;BME280;40419;47.438;19.026;2023-04-04T00:35:11;100098.06;;;1.84;52.95
54512;BME280;40419;47.438;19.026;2023-04-04T00:37:37;100099.47;;;1.88;51.90
54512;BME280;40419;47.438;19.026;2023-04-04T00:40:03;100097.09;;;2.04;51.86
54512;BME280;40419;47.438;19.026;2023-04-04T00:42:32;100088.94;;;1.86;52.88
54512;BME280;40419;47.438;19.026;2023-04-04T00:45:01;100092.72;;;1.64;53.98
54512;BME280;40419;47.438;19.026;2023-04-04T00:47:32;100093.31;;;1.68;54.10
54512;BME280;40419;47.438;19.026;2023-04-04T00:50:00;100090.91;;;1.74;54.44
54512;BME280;40419;47.438;19.026;2023-04-04T00:52:29;100079.78;;;1.59;54.69
54512;BME280;40419;47.438;19.026;2023-04-04T00:54:55;100081.47;;;1.90;51.52
54512;BME280;40419;47.438;19.026;2023-04-04T00:57:23;100079.38;;;1.84;52.48
54512;BME280;40419;47.438;19.026;2023-04-04T00:59:50;100076.97;;;1.61;53.98
54512;BME280;40419;47.438;19.026;2023-04-04T01:02:15;100065.34;;;1.82;52.24
54512;BME280;40419;47.438;19.026;2023-04-04T01:04:43;100063.81;;;1.69;52.88
54512;BME280;40419;47.438;19.026;2023-04-04T01:07:10;100061.69;;;1.53;55.19
54512;BME280;40419;47.438;19.026;2023-04-04T01:09:40;100055.66;;;1.51;54.46
54512;BME280;40419;47.438;19.026;2023-04-04T01:12:08;100056.59;;;1.60;53.71
54512;BME280;40419;47.438;19.026;2023-04-04T01:14:36;100050.31;;;1.51;54.41
54512;BME280;40419;47.438;19.026;2023-04-04T01:17:02;100045.94;;;1.50;54.63
54512;BME280;40419;47.438;19.026;2023-04-04T01:19:45;100033.88;;;1.56;52.09
54512;BME280;40419;47.438;19.026;2023-04-04T01:22:20;100033.31;;;1.42;54.37
54512;BME280;40419;47.438;19.026;2023-04-04T01:24:48;100025.56;;;1.39;52.97
54512;BME280;40419;47.438;19.026;2023-04-04T01:27:21;100008.84;;;1.37;55.55
54512;BME280;40419;47.438;19.026;2023-04-04T01:29:55;100019.09;;;1.32;53.89
54512;BME280;40419;47.438;19.026;2023-04-04T01:38:10;100005.50;;;1.45;54.92
54512;BME280;40419;47.438;19.026;2023-04-04T01:40:43;99997.63;;;1.44;52.56
54512;BME280;40419;47.438;19.026;2023-04-04T01:43:13;99996.66;;;1.35;52.70
54512;BME280;40419;47.438;19.026;2023-04-04T01:45:40;99996.22;;;1.39;52.77
54512;BME280;40419;47.438;19.026;2023-04-04T01:48:12;99986.53;;;1.38;52.52
54512;BME280;40419;47.438;19.026;2023-04-04T01:50:44;99983.00;;;1.48;53.09
54512;BME280;40419;47.438;19.026;2023-04-04T01:53:12;99978.69;;;1.47;53.93
54512;BME280;40419;47.438;19.026;2023-04-04T01:55:40;99983.44;;;1.43;53.41
54512;BME280;40419;47.438;19.026;2023-04-04T01:58:09;99974.59;;;1.42;53.53
54512;BME280;40419;47.438;19.026;2023-04-04T02:00:35;99973.19;;;1.38;53.46
54512;BME280;40419;47.438;19.026;2023-04-04T02:03:04;99971.22;;;1.31;54.10
54512;BME280;40419;47.438;19.026;2023-04-04T02:05:32;99964.50;;;1.36;54.16
54512;BME280;40419;47.438;19.026;2023-04-04T02:08:00;99959.44;;;1.33;53.17
54512;BME280;40419;47.438;19.026;2023-04-04T02:10:35;99954.66;;;1.27;53.68
54512;BME280;40419;47.438;19.026;2023-04-04T02:13:01;99945.97;;;1.35;53.74
54512;BME280;40419;47.438;19.026;2023-04-04T02:15:26;99958.72;;;1.31;53.97
54512;BME280;40419;47.438;19.026;2023-04-04T02:17:55;99943.28;;;1.25;53.58
54512;BME280;40419;47.438;19.026;2023-04-04T02:20:25;99946.22;;;1.22;54.57
54512;BME280;40419;47.438;19.026;2023-04-04T02:22:55;99947.22;;;1.21;55.35
54512;BME280;40419;47.438;19.026;2023-04-04T02:25:25;99937.66;;;1.28;55.29
54512;BME280;40419;47.438;19.026;2023-04-04T02:27:50;99935.44;;;1.14;54.79
54512;BME280;40419;47.438;19.026;2023-04-04T02:30:16;99928.56;;;1.21;54.79
54512;BME280;40419;47.438;19.026;2023-04-04T02:32:44;99925.91;;;1.21;55.87
54512;BME280;40419;47.438;19.026;2023-04-04T02:35:18;99939.06;;;1.32;54.26
54512;BME280;40419;47.438;19.026;2023-04-04T02:37:44;99931.34;;;1.29;54.48
54512;BME280;40419;47.438;19.026;2023-04-04T02:40:18;99927.56;;;1.32;54.88
54512;BME280;40419;47.438;19.026;2023-04-04T02:42:44;99939.63;;;1.36;53.71
54512;BME280;40419;47.438;19.026;2023-04-04T02:45:11;99941.34;;;1.27;55.28
54512;BME280;40419;47.438;19.026;2023-04-04T02:47:41;99946.78;;;1.16;55.31
54512;BME280;40419;47.438;19.026;2023-04-04T02:50:09;99940.06;;;1.02;55.32
54512;BME280;40419;47.438;19.026;2023-04-04T02:52:37;99939.22;;;1.01;56.34
54512;BME280;40419;47.438;19.026;2023-04-04T02:55:11;99946.94;;;1.14;55.59
54512;BME280;40419;47.438;19.026;2023-04-04T02:57:40;99948.03;;;1.12;54.61
54512;BME280;40419;47.438;19.026;2023-04-04T03:00:06;99947.91;;;1.03;55.54
54512;BME280;40419;47.438;19.026;2023-04-04T03:02:34;99947.91;;;0.94;55.42
54512;BME280;40419;47.438;19.026;2023-04-04T03:05:02;99951.28;;;0.96;56.50
54512;BME280;40419;47.438;19.026;2023-04-04T03:07:30;99957.59;;;1.04;55.44
54512;BME280;40419;47.438;19.026;2023-04-04T03:09:55;99967.16;;;1.17;55.59
54512;BME280;40419;47.438;19.026;2023-04-04T03:12:21;99960.56;;;1.01;56.16
54512;BME280;40419;47.438;19.026;2023-04-04T03:14:49;99962.66;;;1.08;56.45
54512;BME280;40419;47.438;19.026;2023-04-04T03:17:15;99967.28;;;1.05;57.76
54512;BME280;40419;47.438;19.026;2023-04-04T03:19:46;99964.19;;;1.00;55.72
54512;BME280;40419;47.438;19.026;2023-04-04T03:22:11;99976.00;;;1.08;55.93
54512;BME280;40419;47.438;19.026;2023-04-04T03:24:37;99959.00;;;1.09;56.41
54512;BME280;40419;47.438;19.026;2023-04-04T03:27:02;99957.59;;;1.04;56.39
54512;BME280;40419;47.438;19.026;2023-04-04T03:29:31;99967.16;;;1.17;56.27
54512;BME280;40419;47.438;19.026;2023-04-04T03:31:59;99961.66;;;0.99;57.74
54512;BME280;40419;47.438;19.026;2023-04-04T03:34:27;99960.97;;;0.97;57.01
54512;BME280;40419;47.438;19.026;2023-04-04T03:36:58;99967.56;;;1.02;57.53
54512;BME280;40419;47.438;19.026;2023-04-04T03:39:28;99970.22;;;0.93;57.34
54512;BME280;40419;47.438;19.026;2023-04-04T03:42:01;99974.59;;;0.94;57.88
54512;BME280;40419;47.438;19.026;2023-04-04T03:44:31;99976.69;;;1.10;57.43
54512;BME280;40419;47.438;19.026;2023-04-04T03:47:00;99975.53;;;1.02;57.10
54512;BME280;40419;47.438;19.026;2023-04-04T03:49:27;99973.03;;;0.91;56.85
54512;BME280;40419;47.438;19.026;2023-04-04T03:51:55;99973.16;;;0.99;58.40
54512;BME280;40419;47.438;19.026;2023-04-04T03:54:23;99974.28;;;0.87;58.19
54512;BME280;40419;47.438;19.026;2023-04-04T03:56:53;99973.03;;;0.91;57.02
54512;BME280;40419;47.438;19.026;2023-04-04T03:59:22;99963.78;;;1.05;56.97
54512;BME280;40419;47.438;19.026;2023-04-04T04:01:50;99969.06;;;0.85;58.46
54512;BME280;40419;47.438;19.026;2023-04-04T04:04:21;99963.63;;;0.97;57.02
54512;BME280;40419;47.438;19.026;2023-04-04T04:06:49;99965.16;;;0.90;57.94
54512;BME280;40419;47.438;19.026;2023-04-04T04:09:15;99958.44;;;0.95;58.36
54512;BME280;40419;47.438;19.026;2023-04-04T04:11:41;99955.47;;;0.88;58.33
54512;BME280;40419;47.438;19.026;2023-04-04T04:14:08;99950.13;;;0.79;59.42
54512;BME280;40419;47.438;19.026;2023-04-04T04:16:43;99946.47;;;0.80;60.08
54512;BME280;40419;47.438;19.026;2023-04-04T04:19:17;99962.34;;;0.91;58.90
54512;BME280;40419;47.438;19.026;2023-04-04T04:21:46;99953.22;;;0.84;58.99
54512;BME280;40419;47.438;19.026;2023-04-04T04:24:14;99953.50;;;0.81;60.35
54512;BME280;40419;47.438;19.026;2023-04-04T04:26:43;99950.84;;;0.91;59.64
54512;BME280;40419;47.438;19.026;2023-04-04T04:29:11;99954.38;;;1.11;57.75
54512;BME280;40419;47.438;19.026;2023-04-04T04:31:41;99948.31;;;0.89;60.17
54512;BME280;40419;47.438;19.026;2023-04-04T04:34:09;99955.19;;;0.92;56.75
54512;BME280;40419;47.438;19.026;2023-04-04T04:36:38;99952.38;;;0.93;58.22
54512;BME280;40419;47.438;19.026;2023-04-04T04:39:23;99957.31;;;1.08;59.49
54512;BME280;40419;47.438;19.026;2023-04-04T04:42:09;99950.44;;;0.95;58.06
54512;BME280;40419;47.438;19.026;2023-04-04T04:44:45;99947.34;;;1.00;58.53
54512;BME280;40419;47.438;19.026;2023-04-04T04:47:13;99951.72;;;1.11;57.67
54512;BME280;40419;47.438;19.026;2023-04-04T04:49:41;99948.19;;;1.10;57.86
54512;BME280;40419;47.438;19.026;2023-04-04T04:52:09;99948.63;;;1.25;56.47
54512;BME280;40419;47.438;19.026;2023-04-04T04:54:41;99937.66;;;1.28;57.47
54512;BME280;40419;47.438;19.026;2023-04-04T04:57:08;99938.50;;;1.38;56.91
54512;BME280;40419;47.438;19.026;2023-04-04T04:59:39;99936.53;;;1.50;56.53
54512;BME280;40419;47.438;19.026;2023-04-04T05:02:06;99939.63;;;1.46;55.67
54512;BME280;40419;47.438;19.026;2023-04-04T05:04:38;99934.44;;;1.34;55.39
54512;BME280;40419;47.438;19.026;2023-04-04T05:07:10;99934.84;;;1.30;55.06
54512;BME280;40419;47.438;19.026;2023-04-04T05:09:37;99936.41;;;1.22;54.26
54512;BME280;40419;47.438;19.026;2023-04-04T05:12:08;99935.16;;;1.36;55.95
54512;BME280;40419;47.438;19.026;2023-04-04T05:14:41;99936.41;;;1.32;54.92
54512;BME280;40419;47.438;19.026;2023-04-04T05:17:07;99937.38;;;1.31;54.81
54512;BME280;40419;47.438;19.026;2023-04-04T05:19:37;99937.50;;;1.59;54.71
54512;BME280;40419;47.438;19.026;2023-04-04T05:22:05;99939.06;;;1.62;53.12
54512;BME280;40419;47.438;19.026;2023-04-04T05:24:47;99944.78;;;1.57;54.80
54512;BME280;40419;47.438;19.026;2023-04-04T05:27:19;99950.25;;;1.85;53.86
54512;BME280;40419;47.438;19.026;2023-04-04T05:29:51;99953.34;;;1.80;54.85
54512;BME280;40419;47.438;19.026;2023-04-04T05:32:20;99962.22;;;1.71;53.04
54512;BME280;40419;47.438;19.026;2023-04-04T05:34:57;99955.59;;;1.85;53.90
54512;BME280;40419;47.438;19.026;2023-04-04T05:37:25;99961.59;;;1.87;53.09
54512;BME280;40419;47.438;19.026;2023-04-04T05:39:55;99966.94;;;1.87;53.23
54512;BME280;40419;47.438;19.026;2023-04-04T05:42:25;99971.47;;;1.86;53.44
54512;BME280;40419;47.438;19.026;2023-04-04T05:44:54;99972.22;;;2.16;52.33
54512;BME280;40419;47.438;19.026;2023-04-04T05:47:20;99970.19;;;2.28;51.97
54512;BME280;40419;47.438;19.026;2023-04-04T05:49:49;99975.28;;;2.21;52.40
54512;BME280;40419;47.438;19.026;2023-04-04T05:52:17;99961.69;;;2.15;51.17
54512;BME280;40419;47.438;19.026;2023-04-04T05:54:51;99958.75;;;2.08;52.27
54512;BME280;40419;47.438;19.026;2023-04-04T05:57:24;99962.31;;;2.36;51.61
54512;BME280;40419;47.438;19.026;2023-04-04T05:59:53;99972.38;;;2.52;51.25
54512;BME280;40419;47.438;19.026;2023-04-04T06:02:22;99963.09;;;2.46;50.48
54512;BME280;40419;47.438;19.026;2023-04-04T06:04:57;99974.19;;;2.52;50.95
54512;BME280;40419;47.438;19.026;2023-04-04T06:07:40;99959.63;;;2.64;52.36
54512;BME280;40419;47.438;19.026;2023-04-04T06:10:09;99963.09;;;2.74;51.51
54512;BME280;40419;47.438;19.026;2023-04-04T06:12:39;99975.56;;;2.83;52.62
54512;BME280;40419;47.438;19.026;2023-04-04T06:15:08;99972.34;;;2.80;52.57
54512;BME280;40419;47.438;19.026;2023-04-04T06:17:42;99988.44;;;2.98;48.28
54512;BME280;40419;47.438;19.026;2023-04-04T06:20:08;99996.81;;;2.57;48.83
54512;BME280;40419;47.438;19.026;2023-04-04T06:22:36;99974.44;;;3.04;49.12
54512;BME280;40419;47.438;19.026;2023-04-04T06:25:05;99979.81;;;3.04;48.40
54512;BME280;40419;47.438;19.026;2023-04-04T06:27:35;99970.47;;;2.90;48.64
54512;BME280;40419;47.438;19.026;2023-04-04T06:30:07;99952.72;;;2.89;48.89
54512;BME280;40419;47.438;19.026;2023-04-04T06:32:33;99945.22;;;2.93;49.84
54512;BME280;40419;47.438;19.026;2023-04-04T06:35:00;99938.03;;;2.75;49.79
54512;BME280;40419;47.438;19.026;2023-04-04T06:37:39;99940.22;;;2.62;50.92
54512;BME280;40419;47.438;19.026;2023-04-04T06:40:14;99939.44;;;2.52;49.43
54512;BME280;40419;47.438;19.026;2023-04-04T06:42:53;99945.72;;;2.33;49.71
54512;BME280;40419;47.438;19.026;2023-04-04T06:45:30;99943.28;;;2.39;51.42
54512;BME280;40419;47.438;19.026;2023-04-04T06:47:58;99933.28;;;2.41;50.94
54512;BME280;40419;47.438;19.026;2023-04-04T06:50:24;99925.56;;;2.10;50.15
54512;BME280;40419;47.438;19.026;2023-04-04T06:52:53;99941.53;;;2.20;52.11
54512;BME280;40419;47.438;19.026;2023-04-04T06:55:22;99930.13;;;2.28;51.36
54512;BME280;40419;47.438;19.026;2023-04-04T06:57:48;99928.16;;;2.30;50.76
54512;BME280;40419;47.438;19.026;2023-04-04T07:00:13;99938.47;;;2.43;51.72
54512;BME280;40419;47.438;19.026;2023-04-04T07:02:42;99926.38;;;2.48;50.33
54512;BME280;40419;47.438;19.026;2023-04-04T07:05:08;99936.91;;;2.50;51.11
54512;BME280;40419;47.438;19.026;2023-04-04T07:07:39;99941.31;;;2.69;50.97
54512;BME280;40419;47.438;19.026;2023-04-04T07:10:05;99943.28;;;2.67;49.97
54512;BME280;40419;47.438;19.026;2023-04-04T07:12:33;99974.34;;;2.78;49.53
54512;BME280;40419;47.438;19.026;2023-04-04T07:14:59;99975.81;;;2.62;50.08
54512;BME280;40419;47.438;19.026;2023-04-04T07:17:24;99967.94;;;2.61;49.28
54512;BME280;40419;47.438;19.026;2023-04-04T07:19:50;99965.72;;;2.84;49.94
54512;BME280;40419;47.438;19.026;2023-04-04T07:22:18;99957.41;;;2.87;49.59
54512;BME280;40419;47.438;19.026;2023-04-04T07:24:46;99961.25;;;2.75;50.10
54512;BME280;40419;47.438;19.026;2023-04-04T07:27:14;99947.34;;;2.71;50.16
54512;BME280;40419;47.438;19.026;2023-04-04T07:29:40;99954.13;;;2.65;50.20
54512;BME280;40419;47.438;19.026;2023-04-04T07:32:06;99951.22;;;3.05;49.33
54512;BME280;40419;47.438;19.026;2023-04-04T07:34:39;99950.81;;;3.53;49.37
54512;BME280;40419;47.438;19.026;2023-04-04T07:37:07;99952.88;;;4.12;48.24
54512;BME280;40419;47.438;19.026;2023-04-04T07:39:35;99965.03;;;4.24;47.35
54512;BME280;40419;47.438;19.026;2023-04-04T07:42:00;99961.63;;;4.14;46.64
54512;BME280;40419;47.438;19.026;2023-04-04T07:44:28;99957.28;;;3.69;46.47
54512;BME280;40419;47.438;19.026;2023-04-04T07:46:59;99968.44;;;4.08;47.11
54512;BME280;40419;47.438;19.026;2023-04-04T07:49:29;99958.97;;;4.22;47.14
54512;BME280;40419;47.438;19.026;2023-04-04T07:51:54;99967.63;;;4.42;47.36
54512;BME280;40419;47.438;19.026;2023-04-04T07:54:20;99974.97;;;4.40;46.26
54512;BME280;40419;47.438;19.026;2023-04-04T07:56:49;99976.59;;;3.99;48.08
54512;BME280;40419;47.438;19.026;2023-04-04T07:59:17;99972.66;;;4.11;47.38
54512;BME280;40419;47.438;19.026;2023-04-04T08:01:45;99973.63;;;4.10;48.13
54512;BME280;40419;47.438;19.026;2023-04-04T08:04:18;99958.72;;;4.34;48.96
54512;BME280;40419;47.438;19.026;2023-04-04T08:06:48;99957.16;;;4.23;47.35
54512;BME280;40419;47.438;19.026;2023-04-04T08:09:17;99962.63;;;3.87;46.29
54512;BME280;40419;47.438;19.026;2023-04-04T08:11:42;99959.81;;;4.23;46.66
54512;BME280;40419;47.438;19.026;2023-04-04T08:14:12;99961.13;;;4.19;47.38
54512;BME280;40419;47.438;19.026;2023-04-04T08:16:38;99975.44;;;4.28;45.33
54512;BME280;40419;47.438;19.026;2023-04-04T08:19:04;99969.06;;;4.29;45.39
54512;BME280;40419;47.438;19.026;2023-04-04T08:21:31;99979.41;;;4.23;47.11
54512;BME280;40419;47.438;19.026;2023-04-04T08:24:01;99965.44;;;4.38;45.70
54512;BME280;40419;47.438;19.026;2023-04-04T08:26:27;99968.31;;;4.44;45.95
54512;BME280;40419;47.438;19.026;2023-04-04T08:28:55;99963.25;;;4.07;44.71
54512;BME280;40419;47.438;19.026;2023-04-04T08:31:21;99963.75;;;4.11;45.45
54512;BME280;40419;47.438;19.026;2023-04-04T08:33:52;99987.19;;;4.35;45.44
54512;BME280;40419;47.438;19.026;2023-04-04T08:36:20;99968.00;;;4.56;45.00
54512;BME280;40419;47.438;19.026;2023-04-04T08:38:46;99965.28;;;4.39;44.59
54512;BME280;40419;47.438;19.026;2023-04-04T08:41:15;99956.28;;;4.57;44.74
54512;BME280;40419;47.438;19.026;2023-04-04T08:43:42;99954.75;;;4.54;44.68
54512;BME280;40419;47.438;19.026;2023-04-04T08:46:10;99957.56;;;4.87;43.37
54512;BME280;40419;47.438;19.026;2023-04-04T08:48:41;99953.50;;;4.67;43.70
54512;BME280;40419;47.438;19.026;2023-04-04T08:51:10;99956.59;;;4.54;44.18
54512;BME280;40419;47.438;19.026;2023-04-04T08:53:39;99942.13;;;4.38;43.94
54512;BME280;40419;47.438;19.026;2023-04-04T08:56:07;99945.66;;;4.39;44.71
54512;BME280;40419;47.438;19.026;2023-04-04T08:58:36;99948.81;;;4.77;43.21
54512;BME280;40419;47.438;19.026;2023-04-04T09:01:05;99937.91;;;4.70;44.48
54512;BME280;40419;47.438;19.026;2023-04-04T09:03:32;99938.88;;;4.61;44.20
54512;BME280;40419;47.438;19.026;2023-04-04T09:06:00;99935.25;;;4.87;44.35
54512;BME280;40419;47.438;19.026;2023-04-04T09:08:31;99948.88;;;4.51;44.86
54512;BME280;40419;47.438;19.026;2023-04-04T09:11:01;99953.53;;;4.83;43.38
54512;BME280;40419;47.438;19.026;2023-04-04T09:13:31;99954.00;;;4.70;44.13
54512;BME280;40419;47.438;19.026;2023-04-04T09:15:59;99956.50;;;4.64;43.81
54512;BME280;40419;47.438;19.026;2023-04-04T09:18:25;99950.09;;;4.22;43.05
54512;BME280;40419;47.438;19.026;2023-04-04T09:20:53;99951.16;;;4.37;43.99
54512;BME280;40419;47.438;19.026;2023-04-04T09:23:21;99972.19;;;4.50;43.08
54512;BME280;40419;47.438;19.026;2023-04-04T09:25:54;99953.75;;;4.47;44.25
54512;BME280;40419;47.438;19.026;2023-04-04T09:28:22;99955.66;;;4.29;43.12
54512;BME280;40419;47.438;19.026;2023-04-04T09:30:49;99936.25;;;4.77;45.01
54512;BME280;40419;47.438;19.026;2023-04-04T09:33:16;99935.81;;;4.99;45.13
54512;BME280;40419;47.438;19.026;2023-04-04T09:35:49;99924.38;;;4.88;43.92
54512;BME280;40419;47.438;19.026;2023-04-04T09:38:16;99939.38;;;4.65;43.47
54512;BME280;40419;47.438;19.026;2023-04-04T09:40:43;99956.25;;;4.91;43.49
54512;BME280;40419;47.438;19.026;2023-04-04T09:43:12;99938.13;;;4.93;44.00
54512;BME280;40419;47.438;19.026;2023-04-04T09:45:43;99932.81;;;5.26;42.50
54512;BME280;40419;47.438;19.026;2023-04-04T09:48:09;99923.75;;;5.11;43.44
54512;BME280;40419;47.438;19.026;2023-04-04T09:50:37;99916.53;;;5.20;42.91
54512;BME280;40419;47.438;19.026;2023-04-04T09:53:15;99920.06;;;5.53;43.56
54512;BME280;40419;47.438;19.026;2023-04-04T09:55:41;99927.94;;;5.55;43.04
54512;BME280;40419;47.438;19.026;2023-04-04T09:58:14;99937.00;;;5.29;41.69
54512;BME280;40419;47.438;19.026;2023-04-04T10:00:46;99944.72;;;5.40;42.73
54512;BME280;40419;47.438;19.026;2023-04-04T10:03:20;99933.66;;;5.52;42.64
54512;BME280;40419;47.438;19.026;2023-04-04T10:05:56;99923.75;;;5.77;45.32
54512;BME280;40419;47.438;19.026;2023-04-04T10:08:27;99924.91;;;5.74;42.71
54512;BME280;40419;47.438;19.026;2023-04-04T10:11:03;99937.69;;;5.56;43.04
54512;BME280;40419;47.438;19.026;2023-04-04T10:13:33;99937.34;;;5.59;42.71
54512;BME280;40419;47.438;19.026;2023-04-04T10:16:11;99921.06;;;5.77;42.58
54512;BME280;40419;47.438;19.026;2023-04-04T10:18:40;99927.25;;;5.69;42.61
54512;BME280;40419;47.438;19.026;2023-04-04T10:21:07;99922.75;;;5.70;41.56
54512;BME280;40419;47.438;19.026;2023-04-04T10:23:33;99919.38;;;5.67;43.39
54512;BME280;40419;47.438;19.026;2023-04-04T10:26:05;99906.13;;;5.25;42.29
54512;BME280;40419;47.438;19.026;2023-04-04T10:28:35;99921.75;;;5.54;42.71
54512;BME280;40419;47.438;19.026;2023-04-04T10:31:24;99908.31;;;5.05;41.27
54512;BME280;40419;47.438;19.026;2023-04-04T10:37:01;99906.44;;;5.63;44.24
54512;BME280;40419;47.438;19.026;2023-04-04T10:39:52;99902.88;;;5.87;42.96
54512;BME280;40419;47.438;19.026;2023-04-04T10:42:23;99899.13;;;6.21;41.91
54512;BME280;40419;47.438;19.026;2023-04-04T10:44:52;99911.88;;;6.27;40.84
54512;BME280;40419;47.438;19.026;2023-04-04T10:47:21;99914.53;;;6.35;40.85
54512;BME280;40419;47.438;19.026;2023-04-04T10:49:49;99923.84;;;6.16;40.05
54512;BME280;40419;47.438;19.026;2023-04-04T10:52:16;99903.03;;;6.10;40.49
54512;BME280;40419;47.438;19.026;2023-04-04T10:54:43;99911.53;;;6.30;40.87
54512;BME280;40419;47.438;19.026;2023-04-04T10:57:11;99902.03;;;6.03;38.81
54512;BME280;40419;47.438;19.026;2023-04-04T11:00:28;99920.34;;;6.08;39.17
54512;BME280;40419;47.438;19.026;2023-04-04T11:02:59;99915.00;;;5.83;39.52
54512;BME280;40419;47.438;19.026;2023-04-04T11:08:01;99903.53;;;6.14;40.06
54512;BME280;40419;47.438;19.026;2023-04-04T11:13:01;99889.25;;;6.05;40.35
54512;BME280;40419;47.438;19.026;2023-04-04T11:16:04;99896.75;;;6.26;38.18
54512;BME280;40419;47.438;19.026;2023-04-04T11:21:30;99892.06;;;6.20;38.67
54512;BME280;40419;47.438;19.026;2023-04-04T11:26:34;99886.34;;;6.23;40.44
54512;BME280;40419;47.438;19.026;2023-04-04T11:29:01;99893.97;;;6.51;38.71
54512;BME280;40419;47.438;19.026;2023-04-04T11:31:32;99875.88;;;6.36;39.14
54512;BME280;40419;47.438;19.026;2023-04-04T11:39:07;99878.75;;;6.66;38.06
54512;BME280;40419;47.438;19.026;2023-04-04T11:44:23;99872.38;;;6.28;38.87
54512;BME280;40419;47.438;19.026;2023-04-04T11:49:29;99853.75;;;6.81;38.89
54512;BME280;40419;47.438;19.026;2023-04-04T11:52:05;99851.31;;;6.94;39.99
54512;BME280;40419;47.438;19.026;2023-04-04T11:54:31;99858.28;;;6.88;37.79
54512;BME280;40419;47.438;19.026;2023-04-04T11:56:57;99859.66;;;6.53;37.84
54512;BME280;40419;47.438;19.026;2023-04-04T11:59:28;99846.66;;;6.65;38.35
54512;BME280;40419;47.438;19.026;2023-04-04T12:02:01;99856.25;;;6.59;39.58
54512;BME280;40419;47.438;19.026;2023-04-04T12:04:27;99848.66;;;6.63;38.24
54512;BME280;40419;47.438;19.026;2023-04-04T12:06:54;99846.56;;;6.50;38.54
54512;BME280;40419;47.438;19.026;2023-04-04T12:09:22;99846.75;;;6.71;38.81
54512;BME280;40419;47.438;19.026;2023-04-04T12:11:50;99834.19;;;6.87;38.59
54512;BME280;40419;47.438;19.026;2023-04-04T12:14:20;99831.94;;;6.99;39.08
54512;BME280;40419;47.438;19.026;2023-04-04T12:16:49;99843.06;;;6.72;38.91
54512;BME280;40419;47.438;19.026;2023-04-04T12:19:23;99831.75;;;6.77;37.61
54512;BME280;40419;47.438;19.026;2023-04-04T12:21:58;99807.88;;;6.97;38.26
54512;BME280;40419;47.438;19.026;2023-04-04T12:24:24;99827.88;;;7.03;37.68
54512;BME280;40419;47.438;19.026;2023-04-04T12:26:53;99825.25;;;6.95;37.03
54512;BME280;40419;47.438;19.026;2023-04-04T12:29:21;99818.25;;;7.08;37.24
54512;BME280;40419;47.438;19.026;2023-04-04T12:31:48;99828.22;;;7.00;37.73
54512;BME280;40419;47.438;19.026;2023-04-04T12:34:21;99817.91;;;7.26;37.00
54512;BME280;40419;47.438;19.026;2023-04-04T12:36:56;99821.16;;;7.22;37.24
54512;BME280;40419;47.438;19.026;2023-04-04T12:39:25;99810.53;;;7.05;38.07
54512;BME280;40419;47.438;19.026;2023-04-04T12:44:37;99814.53;;;7.48;37.80
54512;BME280;40419;47.438;19.026;2023-04-04T12:47:06;99804.41;;;7.12;37.75
54512;BME280;40419;47.438;19.026;2023-04-04T12:49:44;99802.59;;;7.27;37.38
54512;BME280;40419;47.438;19.026;2023-04-04T12:52:17;99808.19;;;7.02;37.61
54512;BME280;40419;47.438;19.026;2023-04-04T12:54:49;99800.53;;;7.29;39.15
54512;BME280;40419;47.438;19.026;2023-04-04T12:57:23;99792.72;;;7.19;36.73
54512;BME280;40419;47.438;19.026;2023-04-04T12:59:49;99802.53;;;7.35;37.71
54512;BME280;40419;47.438;19.026;2023-04-04T13:02:21;99794.81;;;7.47;36.98
54512;BME280;40419;47.438;19.026;2023-04-04T13:04:53;99799.75;;;7.58;39.75
54512;BME280;40419;47.438;19.026;2023-04-04T13:07:30;99799.53;;;7.30;38.62
54512;BME280;40419;47.438;19.026;2023-04-04T13:09:59;99806.84;;;7.21;37.20
54512;BME280;40419;47.438;19.026;2023-04-04T13:15:47;99789.41;;;7.47;38.03
54512;BME280;40419;47.438;19.026;2023-04-04T13:18:23;99790.84;;;7.43;37.61
54512;BME280;40419;47.438;19.026;2023-04-04T13:20:52;99780.78;;;7.37;37.32
54512;BME280;40419;47.438;19.026;2023-04-04T13:23:21;99789.75;;;7.29;36.68
54512;BME280;40419;47.438;19.026;2023-04-04T13:25:46;99785.28;;;7.59;38.72
54512;BME280;40419;47.438;19.026;2023-04-04T13:28:14;99781.09;;;7.57;36.77
54512;BME280;40419;47.438;19.026;2023-04-04T13:30:47;99779.50;;;7.62;38.53
54512;BME280;40419;47.438;19.026;2023-04-04T13:33:19;99783.03;;;7.78;37.99
54512;BME280;40419;47.438;19.026;2023-04-04T13:35:46;99775.97;;;7.62;36.52
54512;BME280;40419;47.438;19.026;2023-04-04T13:38:15;99781.16;;;7.49;36.97
54512;BME280;40419;47.438;19.026;2023-04-04T13:40:43;99776.06;;;7.84;35.67
54512;BME280;40419;47.438;19.026;2023-04-04T13:43:10;99766.66;;;7.79;37.92
54512;BME280;40419;47.438;19.026;2023-04-04T13:45:40;99768.06;;;7.45;36.83
54512;BME280;40419;47.438;19.026;2023-04-04T13:48:07;99768.16;;;7.37;36.71